Time;durP1;ratioP1;P1;durP2;ratioP2;P2;SDS_P1;SDS_P2;PMS_P1;PMS_P2;Temp;Humidity;BMP_temperature;BMP_pressure;BME280_temperature;BME280_humidity;BME280_pressure;Samples;Min_cycle;Max_cycle;Signal;HPM_P1;HPM_P2
2023/08/22 00:01:09;;;;;;;;;;;17.60;99.90;;;;;;7321979;19;9197;-84
2023/08/22 00:03:38;;;;;;;;;;;17.50;99.90;;;;;;7322208;19;9130;-84
2023/08/22 00:06:10;;;;;;;;;;;17.50;99.90;;;;;;7322080;19;9455;-84
2023/08/22 00:08:41;;;;;;;;;;;17.50;99.90;;;;;;7320319;19;9531;-83
2023/08/22 00:11:10;;;;;;;;;;;17.60;99.90;;;;;;7321964;19;9215;-83
2023/08/22 00:13:40;;;;;;;;;;;17.60;99.90;;;;;;7320505;19;9440;-84
2023/08/22 00:16:09;;;;;;;;;;;17.70;99.90;;;;;;7321780;19;9237;-83
2023/08/22 00:18:38;;;;;;;;;;;17.70;99.90;;;;;;7321831;19;9124;-84
2023/08/22 00:21:10;;;;;;;;;;;17.70;99.90;;;;;;7321542;19;9175;-83
2023/08/22 00:23:39;;;;;;;;;;;17.70;99.90;;;;;;7321423;19;9301;-84
2023/08/22 00:26:08;;;;;;;;;;;17.70;99.90;;;;;;7321170;19;9265;-84
2023/08/22 00:28:37;;;;;;;;;;;17.70;99.90;;;;;;7319917;19;11247;-83
2023/08/22 00:31:06;;;;;;;;;;;17.60;99.90;;;;;;7321358;19;9200;-84
2023/08/22 00:33:35;;;;;;;;;;;17.60;99.90;;;;;;7324310;19;9205;-83
2023/08/22 00:36:04;;;;;;;;;;;17.60;99.90;;;;;;7328333;19;9490;-84
2023/08/22 00:38:36;;;;;;;;;;;17.50;99.90;;;;;;7328242;19;9126;-84
2023/08/22 00:41:04;;;;;;;;;;;17.50;99.90;;;;;;7328366;19;9503;-83
2023/08/22 00:43:33;;;;;;;;;;;17.50;99.90;;;;;;7327590;19;10831;-84
2023/08/22 00:46:02;;;;;;;;;;;17.30;99.90;;;;;;7328482;19;9219;-84
2023/08/22 00:48:32;;;;;;;;;;;17.40;99.90;;;;;;7327183;19;9268;-84
2023/08/22 00:51:01;;;;;;;;;;;17.30;99.90;;;;;;7331929;19;10652;-83
2023/08/22 00:53:30;;;;;;;;;;;17.40;99.90;;;;;;7327870;19;9170;-84
2023/08/22 00:56:02;;;;;;;;;;;17.40;99.90;;;;;;7328132;19;9202;-84
2023/08/22 00:58:31;;;;;;;;;;;17.50;99.90;;;;;;7328017;19;9667;-84
2023/08/22 01:01:02;;;;;;;;;;;17.60;99.90;;;;;;7327602;19;9244;-84
2023/08/22 01:03:31;;;;;;;;;;;17.60;99.90;;;;;;7327475;19;9589;-84
2023/08/22 01:06:06;;;;;;;;;;;17.60;99.90;;;;;;7327485;19;9187;-84
2023/08/22 01:08:43;;;;;;;;;;;17.60;99.90;;;;;;7325698;19;9289;-83
2023/08/22 01:11:25;;;;;;;;;;;17.60;99.90;;;;;;7327284;19;9182;-83
2023/08/22 01:13:58;;;;;;;;;;;17.60;99.90;;;;;;7327099;19;9193;-84
2023/08/22 01:16:29;;;;;;;;;;;17.60;99.90;;;;;;7327353;19;10170;-84
2023/08/22 01:19:01;;;;;;;;;;;17.60;99.90;;;;;;7327110;19;10073;-83
2023/08/22 01:21:30;;;;;;;;;;;17.70;99.90;;;;;;7326924;19;9189;-83
2023/08/22 01:24:02;;;;;;;;;;;17.70;99.90;;;;;;7326970;19;9458;-84
2023/08/22 01:26:31;;;;;;;;;;;17.70;99.90;;;;;;7326543;19;9225;-84
2023/08/22 01:29:11;;;;;;;;;;;17.70;99.90;;;;;;7325379;19;9276;-84
2023/08/22 01:31:50;;;;;;;;;;;17.70;99.90;;;;;;7326788;19;9643;-83
2023/08/22 01:34:24;;;;;;;;;;;17.70;99.90;;;;;;7326554;19;9161;-83
2023/08/22 01:36:56;;;;;;;;;;;17.80;99.90;;;;;;7326262;19;9273;-83
2023/08/22 01:39:31;;;;;;;;;;;17.70;99.90;;;;;;7326247;19;9241;-84
2023/08/22 01:42:01;;;;;;;;;;;17.80;99.90;;;;;;7326240;19;9236;-83
2023/08/22 01:44:30;;;;;;;;;;;17.70;99.90;;;;;;7323779;19;10279;-84
2023/08/22 01:46:59;;;;;;;;;;;17.70;99.90;;;;;;7327992;19;9197;-84
2023/08/22 01:49:28;;;;;;;;;;;17.70;99.90;;;;;;7328915;19;9339;-84
2023/08/22 01:51:58;;;;;;;;;;;17.60;99.90;;;;;;7326732;19;9269;-84
2023/08/22 01:54:30;;;;;;;;;;;17.60;99.90;;;;;;7325659;19;9209;-84
2023/08/22 01:56:59;;;;;;;;;;;17.60;99.90;;;;;;7325907;19;9409;-84
2023/08/22 01:59:27;;;;;;;;;;;17.60;99.90;;;;;;7325480;19;9222;-84
2023/08/22 02:01:56;;;;;;;;;;;17.60;99.90;;;;;;7325398;19;9217;-84
2023/08/22 02:04:25;;;;;;;;;;;17.60;99.90;;;;;;7325307;19;9185;-83
2023/08/22 02:06:54;;;;;;;;;;;17.60;99.90;;;;;;7325299;19;9331;-84
2023/08/22 02:09:23;;;;;;;;;;;17.60;99.90;;;;;;7323395;19;9537;-83
2023/08/22 02:11:55;;;;;;;;;;;17.60;99.90;;;;;;7325279;19;9169;-84
2023/08/22 02:14:25;;;;;;;;;;;17.60;99.90;;;;;;7325057;19;9564;-84
2023/08/22 02:16:55;;;;;;;;;;;17.60;99.90;;;;;;7325158;19;9214;-84
2023/08/22 02:19:24;;;;;;;;;;;17.60;99.90;;;;;;7325161;19;9401;-84
2023/08/22 02:21:53;;;;;;;;;;;17.60;99.90;;;;;;7324959;19;9124;-83
2023/08/22 02:24:22;;;;;;;;;;;17.50;99.90;;;;;;7324672;19;9114;-83
2023/08/22 02:26:51;;;;;;;;;;;17.50;99.90;;;;;;7324738;19;9561;-83
2023/08/22 02:29:23;;;;;;;;;;;17.50;99.90;;;;;;7323586;19;9181;-84
2023/08/22 02:31:51;;;;;;;;;;;17.50;99.90;;;;;;7324600;19;9172;-83
2023/08/22 02:34:20;;;;;;;;;;;17.40;99.90;;;;;;7324439;19;9217;-83
2023/08/22 02:36:49;;;;;;;;;;;17.40;99.90;;;;;;7324269;19;9190;-82
2023/08/22 02:39:18;;;;;;;;;;;17.30;99.90;;;;;;7324442;19;8999;-83
2023/08/22 02:41:47;;;;;;;;;;;17.30;99.90;;;;;;7324445;19;9481;-83
2023/08/22 02:44:16;;;;;;;;;;;17.30;99.90;;;;;;7323305;19;9478;-83
2023/08/22 02:46:48;;;;;;;;;;;17.30;99.90;;;;;;7324272;19;9222;-83
2023/08/22 02:49:17;;;;;;;;;;;17.30;99.90;;;;;;7324137;19;10306;-84
2023/08/22 02:51:46;;;;;;;;;;;17.30;99.90;;;;;;7323804;19;9296;-83
2023/08/22 02:54:14;;;;;;;;;;;17.20;99.90;;;;;;7323803;19;9272;-84
2023/08/22 02:56:44;;;;;;;;;;;17.10;99.90;;;;;;7323672;19;9165;-83
2023/08/22 02:59:13;;;;;;;;;;;17.10;99.90;;;;;;7323844;19;9242;-83
2023/08/22 03:01:44;;;;;;;;;;;17.10;99.90;;;;;;7323626;19;9052;-84
2023/08/22 03:04:16;;;;;;;;;;;17.10;99.90;;;;;;7323708;19;9710;-84
2023/08/22 03:06:45;;;;;;;;;;;17.00;99.90;;;;;;7323624;19;9180;-84
2023/08/22 03:09:14;;;;;;;;;;;17.00;99.90;;;;;;7321771;19;9567;-83
2023/08/22 03:11:43;;;;;;;;;;;17.00;99.90;;;;;;7323371;19;9613;-84
2023/08/22 03:14:12;;;;;;;;;;;17.00;99.90;;;;;;7323015;19;9160;-83
2023/08/22 03:16:42;;;;;;;;;;;17.10;99.90;;;;;;7322994;19;9319;-83
2023/08/22 03:19:11;;;;;;;;;;;17.10;99.90;;;;;;7323082;19;9597;-83
2023/08/22 03:21:42;;;;;;;;;;;17.10;99.90;;;;;;7323503;19;9554;-84
2023/08/22 03:24:11;;;;;;;;;;;17.10;99.90;;;;;;7321642;19;10576;-83
2023/08/22 03:26:40;;;;;;;;;;;17.10;99.90;;;;;;7323204;19;9516;-83
2023/08/22 03:29:09;;;;;;;;;;;17.00;99.90;;;;;;7322279;19;9185;-83
2023/08/22 03:31:38;;;;;;;;;;;17.10;99.90;;;;;;7322894;19;9199;-83
2023/08/22 03:34:07;;;;;;;;;;;17.10;99.90;;;;;;7323048;19;9267;-84
2023/08/22 03:36:36;;;;;;;;;;;17.10;99.90;;;;;;7323084;19;9239;-83
2023/08/22 03:39:08;;;;;;;;;;;17.10;99.90;;;;;;7322686;19;9185;-83
2023/08/22 03:41:37;;;;;;;;;;;17.00;99.90;;;;;;7322560;19;9140;-84
2023/08/22 03:44:08;;;;;;;;;;;17.00;99.90;;;;;;7321666;19;9228;-84
2023/08/22 03:46:37;;;;;;;;;;;17.00;99.90;;;;;;7322466;19;10170;-84
2023/08/22 03:49:06;;;;;;;;;;;17.00;99.90;;;;;;7322777;19;9405;-83
2023/08/22 03:51:35;;;;;;;;;;;17.00;99.90;;;;;;7326110;19;9241;-84
2023/08/22 03:54:04;;;;;;;;;;;17.00;99.90;;;;;;7324946;19;9189;-85
2023/08/22 03:56:35;;;;;;;;;;;17.00;99.90;;;;;;7322114;19;9126;-83
2023/08/22 03:59:04;;;;;;;;;;;16.90;99.90;;;;;;7322313;19;9463;-84
2023/08/22 04:01:33;;;;;;;;;;;17.00;99.90;;;;;;7321989;19;9315;-83
2023/08/22 04:04:02;;;;;;;;;;;16.90;99.90;;;;;;7321878;19;9221;-83
2023/08/22 04:06:31;;;;;;;;;;;16.90;99.90;;;;;;7321896;19;9572;-83
2023/08/22 04:09:00;;;;;;;;;;;16.90;99.90;;;;;;7323969;19;9201;-83
2023/08/22 04:11:29;;;;;;;;;;;16.80;99.90;;;;;;7329015;19;9272;-84
2023/08/22 04:14:01;;;;;;;;;;;16.80;99.90;;;;;;7329074;19;9510;-84
2023/08/22 04:16:30;;;;;;;;;;;16.80;99.90;;;;;;7328801;19;9188;-83
2023/08/22 04:19:00;;;;;;;;;;;16.70;99.90;;;;;;7328809;19;9232;-83
2023/08/22 04:21:29;;;;;;;;;;;16.80;99.90;;;;;;7328481;19;9615;-83
2023/08/22 04:23:58;;;;;;;;;;;16.70;99.90;;;;;;7328622;19;9354;-83
2023/08/22 04:26:27;;;;;;;;;;;16.60;99.90;;;;;;7328572;19;9232;-83
2023/08/22 04:28:56;;;;;;;;;;;16.60;99.90;;;;;;7327791;19;9205;-83
2023/08/22 04:31:28;;;;;;;;;;;16.60;99.90;;;;;;7328487;19;9492;-83
2023/08/22 04:33:57;;;;;;;;;;;16.50;99.90;;;;;;7328172;19;9488;-83
2023/08/22 04:36:25;;;;;;;;;;;16.50;99.90;;;;;;7328343;19;10284;-84
2023/08/22 04:38:54;;;;;;;;;;;16.50;99.90;;;;;;7328146;19;9201;-84
2023/08/22 04:41:23;;;;;;;;;;;16.40;99.90;;;;;;7328210;19;9259;-83
2023/08/22 04:43:52;;;;;;;;;;;16.40;99.90;;;;;;7327173;19;9013;-83
2023/08/22 04:46:21;;;;;;;;;;;16.40;99.90;;;;;;7328000;19;9302;-84
2023/08/22 04:48:53;;;;;;;;;;;16.40;99.90;;;;;;7327884;19;9514;-83
2023/08/22 04:51:22;;;;;;;;;;;16.40;99.90;;;;;;7327650;19;9295;-83
2023/08/22 04:53:52;;;;;;;;;;;16.40;99.90;;;;;;7327237;19;9178;-84
2023/08/22 04:56:21;;;;;;;;;;;16.40;99.90;;;;;;7327695;19;9520;-83
2023/08/22 04:58:50;;;;;;;;;;;16.40;99.90;;;;;;7327288;19;9115;-83
2023/08/22 05:01:19;;;;;;;;;;;16.40;99.90;;;;;;7327354;19;9498;-83
2023/08/22 05:03:48;;;;;;;;;;;16.40;99.90;;;;;;7327328;19;9257;-84
2023/08/22 05:06:19;;;;;;;;;;;16.50;99.90;;;;;;7327121;19;9190;-84
2023/08/22 05:08:48;;;;;;;;;;;16.40;99.90;;;;;;7325506;19;9173;-83
2023/08/22 05:11:17;;;;;;;;;;;16.50;99.90;;;;;;7326913;19;10467;-83
2023/08/22 05:13:46;;;;;;;;;;;16.50;99.90;;;;;;7327123;19;9232;-84
2023/08/22 05:16:15;;;;;;;;;;;16.50;99.90;;;;;;7326798;19;11466;-84
2023/08/22 05:18:44;;;;;;;;;;;16.60;99.90;;;;;;7326613;19;9212;-83
2023/08/22 05:21:14;;;;;;;;;;;16.60;99.90;;;;;;7324908;19;9196;-83
2023/08/22 05:23:46;;;;;;;;;;;16.60;99.90;;;;;;7327029;19;9157;-83
2023/08/22 05:26:15;;;;;;;;;;;16.60;99.90;;;;;;7326769;19;9506;-84
2023/08/22 05:28:44;;;;;;;;;;;16.60;99.90;;;;;;7326692;19;9221;-84
2023/08/22 05:31:21;;;;;;;;;;;16.60;99.90;;;;;;7324578;19;9205;-83
2023/08/22 05:33:50;;;;;;;;;;;16.60;99.90;;;;;;7326390;19;9173;-84
2023/08/22 05:36:19;;;;;;;;;;;16.60;99.90;;;;;;7326059;19;9211;-83
2023/08/22 05:38:51;;;;;;;;;;;16.70;99.90;;;;;;7326279;19;9472;-83
2023/08/22 05:41:20;;;;;;;;;;;16.70;99.90;;;;;;7326177;19;9292;-83
2023/08/22 05:43:49;;;;;;;;;;;16.80;99.90;;;;;;7325444;19;9341;-84
2023/08/22 05:46:18;;;;;;;;;;;16.80;99.90;;;;;;7326170;19;9577;-83
2023/08/22 05:48:47;;;;;;;;;;;16.90;99.90;;;;;;7326507;19;9469;-84
2023/08/22 05:51:16;;;;;;;;;;;16.90;99.90;;;;;;7324394;19;9185;-83
2023/08/22 05:53:45;;;;;;;;;;;16.90;99.90;;;;;;7327414;19;9196;-83
2023/08/22 05:56:16;;;;;;;;;;;17.00;99.90;;;;;;7330215;19;9217;-84
2023/08/22 05:58:45;;;;;;;;;;;17.10;99.90;;;;;;7326831;19;9331;-84
2023/08/22 06:01:15;;;;;;;;;;;17.20;99.90;;;;;;7326147;19;9161;-84
2023/08/22 06:03:44;;;;;;;;;;;17.20;99.90;;;;;;7325391;19;10369;-84
2023/08/22 06:06:13;;;;;;;;;;;17.20;99.90;;;;;;7325629;19;9133;-84
2023/08/22 06:08:42;;;;;;;;;;;17.30;99.90;;;;;;7323872;19;9306;-84
2023/08/22 06:11:11;;;;;;;;;;;17.30;99.90;;;;;;7323406;19;9213;-84
2023/08/22 06:13:43;;;;;;;;;;;17.40;99.90;;;;;;7324997;19;9185;-83
2023/08/22 06:16:12;;;;;;;;;;;17.50;99.90;;;;;;7325025;19;9573;-84
2023/08/22 06:18:41;;;;;;;;;;;17.60;99.90;;;;;;7325149;19;9280;-83
2023/08/22 06:21:10;;;;;;;;;;;17.70;99.90;;;;;;7325253;19;9534;-83
2023/08/22 06:23:40;;;;;;;;;;;17.70;99.90;;;;;;7324768;19;9177;-84
2023/08/22 06:26:09;;;;;;;;;;;17.80;99.90;;;;;;7324923;19;9251;-83
2023/08/22 06:28:37;;;;;;;;;;;17.90;99.90;;;;;;7324566;19;9205;-84
2023/08/22 06:31:09;;;;;;;;;;;18.00;99.90;;;;;;7322169;19;9222;-83
2023/08/22 06:33:38;;;;;;;;;;;18.10;99.90;;;;;;7324502;19;9205;-84
2023/08/22 06:36:07;;;;;;;;;;;18.20;99.90;;;;;;7324478;19;10881;-84
2023/08/22 06:38:36;;;;;;;;;;;18.30;99.90;;;;;;7323924;19;9409;-83
2023/08/22 06:41:07;;;;;;;;;;;18.30;99.90;;;;;;7323978;19;9644;-83
2023/08/22 06:43:36;;;;;;;;;;;18.30;99.90;;;;;;7324245;19;9259;-83
2023/08/22 06:46:05;;;;;;;;;;;18.30;99.90;;;;;;7324195;19;9156;-84
2023/08/22 06:48:37;;;;;;;;;;;18.40;99.90;;;;;;7325644;19;10391;-83
2023/08/22 06:51:06;;;;;;;;;;;18.40;99.90;;;;;;7322908;19;10715;-83
2023/08/22 06:53:35;;;;;;;;;;;18.50;99.90;;;;;;7323694;19;9228;-83
2023/08/22 06:56:24;;;;;;;;;;;18.50;99.90;;;;;;7322399;19;9498;-83
2023/08/22 06:58:53;;;;;;;;;;;18.60;99.90;;;;;;7323361;19;9128;-83
2023/08/22 07:01:22;;;;;;;;;;;18.60;99.90;;;;;;7323594;19;9575;-84
2023/08/22 07:03:55;;;;;;;;;;;18.80;99.90;;;;;;7323666;19;9219;-83
2023/08/22 07:06:24;;;;;;;;;;;19.00;99.90;;;;;;7323477;19;9423;-83
2023/08/22 07:08:53;;;;;;;;;;;19.30;99.90;;;;;;7322047;19;9659;-83
2023/08/22 07:11:22;;;;;;;;;;;19.60;99.90;;;;;;7321854;19;11172;-83
2023/08/22 07:13:52;;;;;;;;;;;19.70;99.90;;;;;;7323535;19;9197;-83
2023/08/22 07:16:21;;;;;;;;;;;19.80;99.90;;;;;;7322806;19;9203;-83
2023/08/22 07:18:49;;;;;;;;;;;19.90;99.90;;;;;;7322995;19;9307;-83
2023/08/22 07:21:21;;;;;;;;;;;20.00;99.90;;;;;;7322953;19;9546;-83
2023/08/22 07:23:51;;;;;;;;;;;20.20;99.90;;;;;;7322785;19;9196;-84
2023/08/22 07:26:20;;;;;;;;;;;20.30;99.90;;;;;;7322681;19;9516;-83
2023/08/22 07:28:49;;;;;;;;;;;20.50;99.90;;;;;;7322702;19;9537;-84
2023/08/22 07:31:17;;;;;;;;;;;20.80;99.90;;;;;;7321398;19;8992;-84
2023/08/22 07:33:47;;;;;;;;;;;21.10;99.90;;;;;;7322503;19;9221;-84
2023/08/22 07:36:23;;;;;;;;;;;21.40;99.90;;;;;;7322541;19;9177;-83
2023/08/22 07:38:52;;;;;;;;;;;21.70;99.90;;;;;;7322657;19;9479;-83
2023/08/22 07:41:21;;;;;;;;;;;22.10;99.90;;;;;;7322726;19;9169;-84
2023/08/22 07:43:50;;;;;;;;;;;22.40;99.90;;;;;;7325451;19;9222;-83
2023/08/22 07:46:19;;;;;;;;;;;22.70;99.90;;;;;;7329997;19;9219;-83
2023/08/22 07:48:48;;;;;;;;;;;22.90;99.90;;;;;;7331284;19;9221;-83
2023/08/22 07:51:17;;;;;;;;;;;22.90;99.90;;;;;;7328101;19;9250;-83
2023/08/22 07:53:49;;;;;;;;;;;23.00;99.90;;;;;;7329784;19;9284;-83
2023/08/22 07:56:18;;;;;;;;;;;23.20;99.90;;;;;;7330164;19;9546;-84
2023/08/22 07:58:47;;;;;;;;;;;23.30;99.90;;;;;;7334210;19;9202;-83
2023/08/22 08:01:19;;;;;;;;;;;23.50;99.90;;;;;;7331088;19;9203;-84
2023/08/22 08:03:48;;;;;;;;;;;23.70;99.90;;;;;;7329497;19;9213;-84
2023/08/22 08:06:17;;;;;;;;;;;23.80;99.90;;;;;;7329762;19;9204;-83
2023/08/22 08:08:49;;;;;;;;;;;23.70;99.90;;;;;;7327811;19;10199;-84
2023/08/22 08:11:17;;;;;;;;;;;23.60;99.90;;;;;;7327675;19;9135;-84
2023/08/22 08:13:47;;;;;;;;;;;23.60;99.90;;;;;;7329046;19;9185;-83
2023/08/22 08:16:16;;;;;;;;;;;23.60;99.90;;;;;;7328678;19;9768;-83
2023/08/22 08:18:45;;;;;;;;;;;23.60;99.90;;;;;;7328889;19;9282;-83
2023/08/22 08:21:17;;;;;;;;;;;23.50;99.80;;;;;;7328618;19;9338;-84
2023/08/22 08:23:48;;;;;;;;;;;23.40;99.90;;;;;;7328750;19;9173;-83
2023/08/22 08:26:18;;;;;;;;;;;23.30;99.90;;;;;;7328559;19;9197;-83
2023/08/22 08:28:47;;;;;;;;;;;23.40;99.90;;;;;;7328642;19;9160;-83
2023/08/22 08:31:16;;;;;;;;;;;23.40;99.90;;;;;;7326754;19;9379;-83
2023/08/22 08:33:45;;;;;;;;;;;23.30;99.90;;;;;;7328392;19;9125;-83
2023/08/22 08:36:15;;;;;;;;;;;23.30;99.90;;;;;;7328444;19;9608;-84
2023/08/22 08:38:44;;;;;;;;;;;23.30;99.50;;;;;;7328220;19;9181;-83
2023/08/22 08:41:17;;;;;;;;;;;23.30;99.50;;;;;;7328472;19;9406;-84
2023/08/22 08:43:49;;;;;;;;;;;23.30;98.00;;;;;;7327812;19;9229;-83
2023/08/22 08:46:19;;;;;;;;;;;23.30;98.50;;;;;;7328257;19;9219;-83
2023/08/22 08:48:49;;;;;;;;;;;23.40;98.80;;;;;;7329194;19;9209;-83
2023/08/22 08:51:18;;;;;;;;;;;23.40;99.20;;;;;;7326580;19;9540;-83
2023/08/22 08:53:49;;;;;;;;;;;23.40;99.00;;;;;;7327166;19;9169;-83
2023/08/22 08:56:21;;;;;;;;;;;23.40;98.90;;;;;;7327692;19;9169;-84
2023/08/22 08:58:50;;;;;;;;;;;23.40;98.90;;;;;;7327596;19;9532;-84
2023/08/22 09:01:21;;;;;;;;;;;23.40;97.70;;;;;;7328034;19;9173;-83
2023/08/22 09:03:50;;;;;;;;;;;23.40;97.90;;;;;;7327503;19;9181;-84
2023/08/22 09:06:20;;;;;;;;;;;23.50;98.10;;;;;;7327461;19;11270;-84
2023/08/22 09:09:07;;;;;;;;;;;23.60;97.80;;;;;;7325793;19;9446;-83
2023/08/22 09:11:45;;;;;;;;;;;23.60;98.00;;;;;;7325994;19;9201;-83
2023/08/22 09:14:15;;;;;;;;;;;23.70;97.60;;;;;;7327502;19;11119;-83
2023/08/22 09:16:45;;;;;;;;;;;23.80;96.40;;;;;;7327324;19;9262;-83
2023/08/22 09:19:14;;;;;;;;;;;23.90;95.70;;;;;;7327239;19;9261;-84
2023/08/22 09:21:59;;;;;;;;;;;24.10;95.70;;;;;;7326873;19;9153;-83
2023/08/22 09:24:29;;;;;;;;;;;24.20;95.00;;;;;;7326665;19;9191;-83
2023/08/22 09:27:05;;;;;;;;;;;24.30;93.80;;;;;;7327086;19;9436;-84
2023/08/22 09:29:36;;;;;;;;;;;24.30;93.60;;;;;;7326771;19;9131;-84
2023/08/22 09:32:09;;;;;;;;;;;24.40;92.50;;;;;;7325062;19;9272;-84
2023/08/22 09:34:38;;;;;;;;;;;24.50;92.60;;;;;;7326532;19;9169;-83
2023/08/22 09:37:07;;;;;;;;;;;24.60;92.70;;;;;;7326553;19;9420;-83
2023/08/22 09:39:38;;;;;;;;;;;24.70;92.60;;;;;;7326304;19;10193;-83
2023/08/22 09:42:12;;;;;;;;;;;24.70;91.60;;;;;;7326272;19;9169;-83
2023/08/22 09:44:41;;;;;;;;;;;24.70;90.70;;;;;;7324902;19;9491;-84
2023/08/22 09:47:11;;;;;;;;;;;24.70;90.50;;;;;;7326097;19;9398;-83
2023/08/22 09:49:44;;;;;;;;;;;24.70;91.60;;;;;;7330158;19;9262;-83
2023/08/22 09:52:13;;;;;;;;;;;24.60;92.00;;;;;;7324389;19;9161;-83
2023/08/22 09:54:42;;;;;;;;;;;24.50;91.90;;;;;;7326084;19;9394;-84
2023/08/22 09:57:15;;;;;;;;;;;24.40;91.50;;;;;;7326802;19;9146;-84
2023/08/22 09:59:46;;;;;;;;;;;24.40;91.00;;;;;;7327495;19;9178;-83
2023/08/22 10:02:16;;;;;;;;;;;24.60;90.80;;;;;;7335006;19;9304;-83
2023/08/22 10:04:46;;;;;;;;;;;24.70;89.80;;;;;;7327629;19;9382;-83
2023/08/22 10:07:16;;;;;;;;;;;24.90;88.90;;;;;;7323889;19;9264;-84
2023/08/22 10:09:46;;;;;;;;;;;24.90;89.40;;;;;;7324957;19;9222;-84
2023/08/22 10:12:23;;;;;;;;;;;25.00;89.60;;;;;;7323436;19;9217;-84
2023/08/22 10:14:56;;;;;;;;;;;25.10;88.10;;;;;;7324962;19;9633;-84
2023/08/22 10:17:29;;;;;;;;;;;25.20;86.90;;;;;;7324963;19;9185;-84
2023/08/22 10:20:04;;;;;;;;;;;25.20;86.50;;;;;;7324783;19;9276;-84
2023/08/22 10:22:35;;;;;;;;;;;25.20;80.80;;;;;;7324502;19;9482;-83
2023/08/22 10:25:05;;;;;;;;;;;25.20;81.50;;;;;;7324564;19;9241;-83
2023/08/22 10:27:41;;;;;;;;;;;25.30;81.70;;;;;;7324551;19;9225;-83
2023/08/22 10:30:22;;;;;;;;;;;25.20;82.20;;;;;;7324397;19;9182;-83
2023/08/22 10:33:07;;;;;;;;;;;25.10;81.00;;;;;;7322995;19;9193;-83
2023/08/22 10:35:36;;;;;;;;;;;25.20;80.90;;;;;;7324374;19;9130;-84
2023/08/22 10:38:05;;;;;;;;;;;25.30;80.50;;;;;;7324271;19;9228;-83
2023/08/22 10:40:36;;;;;;;;;;;25.30;80.30;;;;;;7323984;19;9076;-84
2023/08/22 10:43:15;;;;;;;;;;;25.20;79.50;;;;;;7324310;19;10841;-83
2023/08/22 10:45:54;;;;;;;;;;;25.10;80.20;;;;;;7322601;19;9189;-82
2023/08/22 10:48:24;;;;;;;;;;;25.30;79.50;;;;;;7325782;19;9210;-84
2023/08/22 10:50:53;;;;;;;;;;;25.30;78.40;;;;;;7323607;19;9197;-83
2023/08/22 10:53:28;;;;;;;;;;;25.40;79.30;;;;;;7323508;19;9221;-83
2023/08/22 10:55:58;;;;;;;;;;;25.50;79.70;;;;;;7323731;19;9222;-83
2023/08/22 10:58:42;;;;;;;;;;;25.50;79.20;;;;;;7323576;19;9161;-83
2023/08/22 11:01:17;;;;;;;;;;;25.50;78.70;;;;;;7323549;19;9425;-83
2023/08/22 11:03:50;;;;;;;;;;;25.50;76.50;;;;;;7323471;19;9170;-83
2023/08/22 11:06:21;;;;;;;;;;;25.50;77.90;;;;;;7323584;19;9454;-84
2023/08/22 11:08:50;;;;;;;;;;;25.60;78.20;;;;;;7322444;19;9528;-83
2023/08/22 11:11:20;;;;;;;;;;;25.70;77.10;;;;;;7322815;19;8996;-83
2023/08/22 11:13:52;;;;;;;;;;;25.70;75.00;;;;;;7323394;19;9181;-83
2023/08/22 11:16:21;;;;;;;;;;;25.80;76.40;;;;;;7323400;19;9457;-84
2023/08/22 11:18:51;;;;;;;;;;;25.80;76.10;;;;;;7323123;19;9158;-84
2023/08/22 11:21:23;;;;;;;;;;;25.80;75.90;;;;;;7323088;19;9334;-83
2023/08/22 11:23:54;;;;;;;;;;;25.80;75.40;;;;;;7323073;19;9527;-83
2023/08/22 11:26:23;;;;;;;;;;;25.90;76.00;;;;;;7322938;19;9212;-83
2023/08/22 11:28:55;;;;;;;;;;;26.00;76.50;;;;;;7323278;19;9547;-83
2023/08/22 11:31:24;;;;;;;;;;;26.10;75.00;;;;;;7322531;19;8945;-83
2023/08/22 11:33:53;;;;;;;;;;;26.10;74.30;;;;;;7322892;19;9491;-83
2023/08/22 11:36:23;;;;;;;;;;;26.10;74.80;;;;;;7323071;19;9634;-83
2023/08/22 11:38:52;;;;;;;;;;;26.10;74.10;;;;;;7322450;19;9157;-84
2023/08/22 11:41:22;;;;;;;;;;;26.00;74.50;;;;;;7322408;19;9564;-84
2023/08/22 11:44:00;;;;;;;;;;;26.00;74.60;;;;;;7322121;19;9230;-84
2023/08/22 11:46:33;;;;;;;;;;;26.00;74.40;;;;;;7322318;19;9205;-83
2023/08/22 11:49:08;;;;;;;;;;;26.00;74.50;;;;;;7325463;19;9125;-83
2023/08/22 11:51:36;;;;;;;;;;;26.00;73.00;;;;;;7320076;19;11926;-83
2023/08/22 11:54:05;;;;;;;;;;;26.00;73.10;;;;;;7322238;19;9687;-84
2023/08/22 11:56:35;;;;;;;;;;;26.10;72.80;;;;;;7322082;19;9082;-83
2023/08/22 11:59:06;;;;;;;;;;;26.10;73.00;;;;;;7322377;19;9229;-85
2023/08/22 12:01:35;;;;;;;;;;;26.10;71.20;;;;;;7322842;19;9462;-83
2023/08/22 12:04:08;;;;;;;;;;;26.10;72.00;;;;;;7325371;19;10221;-84
2023/08/22 12:06:37;;;;;;;;;;;26.10;72.70;;;;;;7324689;19;8944;-83
2023/08/22 12:09:06;;;;;;;;;;;26.10;73.00;;;;;;7321310;19;9229;-83
2023/08/22 12:11:35;;;;;;;;;;;26.10;72.30;;;;;;7321574;19;9198;-84
2023/08/22 12:14:07;;;;;;;;;;;26.10;72.90;;;;;;7321388;19;9173;-84
2023/08/22 12:16:36;;;;;;;;;;;26.00;72.60;;;;;;7321340;19;9274;-84
2023/08/22 12:19:13;;;;;;;;;;;26.10;72.50;;;;;;7321712;19;9458;-83
2023/08/22 12:21:42;;;;;;;;;;;26.10;72.30;;;;;;7321793;19;9180;-84
2023/08/22 12:24:11;;;;;;;;;;;26.20;71.50;;;;;;7321298;19;9205;-83
2023/08/22 12:26:40;;;;;;;;;;;26.30;71.50;;;;;;7321371;19;9229;-83
2023/08/22 12:29:12;;;;;;;;;;;26.30;70.20;;;;;;7322862;19;9528;-83
2023/08/22 12:31:41;;;;;;;;;;;26.30;71.10;;;;;;7328226;19;9213;-84
2023/08/22 12:34:10;;;;;;;;;;;26.30;70.30;;;;;;7328105;19;9448;-83
2023/08/22 12:36:39;;;;;;;;;;;26.20;70.90;;;;;;7328131;19;9294;-84
2023/08/22 12:39:10;;;;;;;;;;;26.20;70.50;;;;;;7328117;19;9633;-83
2023/08/22 12:41:39;;;;;;;;;;;26.20;70.40;;;;;;7328272;19;9343;-83
2023/08/22 12:44:08;;;;;;;;;;;26.30;70.50;;;;;;7327152;19;9255;-84
2023/08/22 12:46:40;;;;;;;;;;;26.30;70.70;;;;;;7329261;19;9233;-84
2023/08/22 12:49:09;;;;;;;;;;;26.40;70.80;;;;;;7328086;19;9211;-84
2023/08/22 12:51:41;;;;;;;;;;;26.40;70.10;;;;;;7325380;19;9225;-83
2023/08/22 12:54:10;;;;;;;;;;;26.40;70.60;;;;;;7327660;19;9176;-83
2023/08/22 12:56:39;;;;;;;;;;;26.40;70.70;;;;;;7327663;19;9513;-83
2023/08/22 12:59:08;;;;;;;;;;;26.40;70.10;;;;;;7327430;19;9205;-83
2023/08/22 13:01:39;;;;;;;;;;;26.30;69.70;;;;;;7327444;19;10147;-84
2023/08/22 13:04:14;;;;;;;;;;;26.30;70.80;;;;;;7327215;19;9169;-83
2023/08/22 13:06:43;;;;;;;;;;;26.20;69.60;;;;;;7327455;19;9355;-84
2023/08/22 13:09:12;;;;;;;;;;;26.30;69.30;;;;;;7325079;19;9514;-84
2023/08/22 13:11:42;;;;;;;;;;;26.40;70.30;;;;;;7326442;19;9125;-84
2023/08/22 13:14:11;;;;;;;;;;;26.40;69.60;;;;;;7327637;19;9561;-85
2023/08/22 13:16:43;;;;;;;;;;;26.40;69.80;;;;;;7326710;19;9256;-84
2023/08/22 13:19:12;;;;;;;;;;;26.50;69.40;;;;;;7326903;19;10169;-83
2023/08/22 13:21:41;;;;;;;;;;;26.60;69.80;;;;;;7326679;19;8944;-84
2023/08/22 13:24:10;;;;;;;;;;;26.40;68.90;;;;;;7326676;19;9225;-83
2023/08/22 13:26:39;;;;;;;;;;;26.20;69.50;;;;;;7324993;19;10952;-84
2023/08/22 13:29:08;;;;;;;;;;;26.10;69.50;;;;;;7326717;19;9535;-84
2023/08/22 13:31:38;;;;;;;;;;;26.30;70.10;;;;;;7326329;19;9338;-83
2023/08/22 13:34:10;;;;;;;;;;;26.20;70.30;;;;;;7326347;19;9177;-84
2023/08/22 13:36:39;;;;;;;;;;;26.30;69.70;;;;;;7326143;19;9140;-83
2023/08/22 13:39:07;;;;;;;;;;;26.30;68.40;;;;;;7326404;19;9115;-83
2023/08/22 13:41:38;;;;;;;;;;;26.30;69.10;;;;;;7323781;19;9542;-84
2023/08/22 13:44:07;;;;;;;;;;;26.30;69.60;;;;;;7325186;19;9327;-83
2023/08/22 13:46:36;;;;;;;;;;;26.20;69.80;;;;;;7327245;19;9216;-83
2023/08/22 13:49:07;;;;;;;;;;;26.20;69.70;;;;;;7326023;19;9173;-84
2023/08/22 13:51:38;;;;;;;;;;;26.30;69.80;;;;;;7325891;19;9189;-84
2023/08/22 13:54:07;;;;;;;;;;;26.40;70.00;;;;;;7323947;19;9280;-84
2023/08/22 13:56:36;;;;;;;;;;;26.40;68.80;;;;;;7325589;19;9120;-83
2023/08/22 13:59:05;;;;;;;;;;;26.50;69.70;;;;;;7325807;19;9204;-84
2023/08/22 14:01:34;;;;;;;;;;;26.50;69.50;;;;;;7325812;19;9529;-84
2023/08/22 14:04:03;;;;;;;;;;;26.60;68.60;;;;;;7326979;19;9210;-83
2023/08/22 14:06:32;;;;;;;;;;;26.60;68.90;;;;;;7328971;19;9262;-85
2023/08/22 14:09:04;;;;;;;;;;;26.50;69.20;;;;;;7324670;19;8944;-84
2023/08/22 14:11:33;;;;;;;;;;;26.50;69.40;;;;;;7325720;19;9313;-84
2023/08/22 14:14:02;;;;;;;;;;;26.40;69.90;;;;;;7323658;19;9208;-85
2023/08/22 14:16:31;;;;;;;;;;;26.40;69.90;;;;;;7325284;19;9439;-84
2023/08/22 14:19:00;;;;;;;;;;;26.40;70.10;;;;;;7324841;19;10699;-85
2023/08/22 14:21:29;;;;;;;;;;;26.30;70.00;;;;;;7324660;19;9226;-84
2023/08/22 14:23:58;;;;;;;;;;;26.10;70.20;;;;;;7325034;19;9197;-84
2023/08/22 14:26:29;;;;;;;;;;;26.00;70.60;;;;;;7324943;19;8945;-84
2023/08/22 14:28:58;;;;;;;;;;;26.00;70.30;;;;;;7325238;19;9207;-84
2023/08/22 14:31:28;;;;;;;;;;;26.10;70.60;;;;;;7324873;19;9049;-83
2023/08/22 14:33:57;;;;;;;;;;;26.20;70.70;;;;;;7323115;19;9196;-83
2023/08/22 14:36:26;;;;;;;;;;;26.30;69.90;;;;;;7324676;19;8996;-84
2023/08/22 14:38:55;;;;;;;;;;;26.30;69.20;;;;;;7324603;19;9177;-84
2023/08/22 14:41:24;;;;;;;;;;;26.10;69.90;;;;;;7324727;19;9223;-84
2023/08/22 14:43:56;;;;;;;;;;;26.00;70.80;;;;;;7323841;19;9337;-85
2023/08/22 14:46:25;;;;;;;;;;;25.90;71.40;;;;;;7324975;19;9420;-84